Time;durP1;ratioP1;P1;durP2;ratioP2;P2;SDS_P1;SDS_P2;PMS_P1;PMS_P2;Temp;Humidity;BMP_temperature;BMP_pressure;BME280_temperature;BME280_humidity;BME280_pressure;Samples;Min_cycle;Max_cycle;Signal;HPM_P1;HPM_P2
2021/10/04 00:01:07;;;;;;;3.57;2.67;;;13.20;98.30;;;;;;5205137;22;20466;-83
2021/10/04 00:03:12;;;;;;;3.50;2.80;;;13.20;98.30;;;;;;5206189;22;20422;-83
2021/10/04 00:05:15;;;;;;;3.93;2.73;;;13.20;98.30;;;;;;5206346;22;21209;-83
2021/10/04 00:07:18;;;;;;;3.70;2.80;;;13.10;98.30;;;;;;5205970;22;20511;-84
2021/10/04 00:09:21;;;;;;;5.00;3.33;;;13.10;98.30;;;;;;5205618;22;20443;-84
2021/10/04 00:11:24;;;;;;;4.03;3.07;;;13.10;98.30;;;;;;5205315;22;20457;-83
2021/10/04 00:13:27;;;;;;;3.20;2.90;;;13.10;98.30;;;;;;5205976;22;20506;-83
2021/10/04 00:15:31;;;;;;;2.70;2.50;;;13.10;98.30;;;;;;5206369;22;20717;-84
2021/10/04 00:17:34;;;;;;;3.10;2.80;;;13.10;98.30;;;;;;5206320;22;20447;-83
2021/10/04 00:19:39;;;;;;;3.83;2.93;;;13.10;98.30;;;;;;5206722;22;20441;-83
2021/10/04 00:21:42;;;;;;;4.77;2.97;;;13.10;98.30;;;;;;5204772;22;20454;-83
2021/10/04 00:23:45;;;;;;;4.23;2.80;;;13.10;98.30;;;;;;5204440;22;20429;-83
2021/10/04 00:25:48;;;;;;;5.40;3.03;;;13.00;98.30;;;;;;5204696;22;20419;-83
2021/10/04 00:27:52;;;;;;;2.90;2.50;;;13.00;98.30;;;;;;5203870;22;20470;-82
2021/10/04 00:29:55;;;;;;;3.10;2.80;;;13.00;98.30;;;;;;5204213;22;20475;-83
2021/10/04 00:31:58;;;;;;;3.07;2.83;;;13.10;98.30;;;;;;5203242;22;20454;-84
2021/10/04 00:34:01;;;;;;;3.40;2.80;;;13.00;98.30;;;;;;5204220;22;21017;-83
2021/10/04 00:36:06;;;;;;;4.70;3.50;;;13.00;98.30;;;;;;5203813;22;20487;-83
2021/10/04 00:38:09;;;;;;;6.30;3.57;;;13.00;98.30;;;;;;5203982;22;20421;-83
2021/10/04 00:40:15;;;;;;;4.17;3.20;;;12.90;98.30;;;;;;5204166;22;20456;-84
2021/10/04 00:42:20;;;;;;;3.43;3.13;;;12.90;98.30;;;;;;5204079;22;20430;-83
2021/10/04 00:44:23;;;;;;;3.30;3.00;;;12.90;98.30;;;;;;5203323;22;20975;-84
2021/10/04 00:46:27;;;;;;;4.00;3.00;;;12.90;98.30;;;;;;5202146;22;20450;-83
2021/10/04 00:48:30;;;;;;;3.10;2.80;;;12.90;98.30;;;;;;5203932;22;20521;-82
2021/10/04 00:50:33;;;;;;;3.67;3.30;;;12.90;98.30;;;;;;5204320;22;20425;-83
2021/10/04 00:52:39;;;;;;;3.67;3.30;;;12.80;98.30;;;;;;5204217;22;20419;-83
2021/10/04 00:54:42;;;;;;;4.73;3.60;;;12.90;98.30;;;;;;5204034;22;20414;-83
2021/10/04 00:56:45;;;;;;;6.53;3.50;;;12.90;98.30;;;;;;5203888;22;20505;-83
2021/10/04 00:58:48;;;;;;;5.20;3.57;;;12.80;98.30;;;;;;5203947;22;20466;-84
2021/10/04 01:00:52;;;;;;;3.53;3.23;;;12.90;98.30;;;;;;5203841;22;20613;-84
2021/10/04 01:02:55;;;;;;;4.30;3.70;;;12.80;98.30;;;;;;5204749;22;20422;-83
2021/10/04 01:04:58;;;;;;;4.30;3.20;;;12.80;98.30;;;;;;5204614;22;20462;-83
2021/10/04 01:07:02;;;;;;;7.37;3.73;;;12.80;98.30;;;;;;5203243;22;20453;-83
2021/10/04 01:09:06;;;;;;;5.37;3.93;;;12.70;98.30;;;;;;5202563;22;20514;-84
2021/10/04 01:11:09;;;;;;;4.90;4.10;;;12.70;98.30;;;;;;5201655;22;20442;-83
2021/10/04 01:13:12;;;;;;;7.30;4.13;;;12.80;98.30;;;;;;5202681;22;20514;-83
2021/10/04 01:15:17;;;;;;;6.37;4.33;;;12.70;98.30;;;;;;5202941;22;20494;-83
2021/10/04 01:17:20;;;;;;;4.90;4.03;;;12.70;98.30;;;;;;5202686;22;20513;-83
2021/10/04 01:19:23;;;;;;;5.87;4.60;;;12.70;98.30;;;;;;5202339;22;20529;-83
2021/10/04 01:21:28;;;;;;;6.30;4.83;;;12.70;98.30;;;;;;5202024;22;20423;-83
2021/10/04 01:23:32;;;;;;;4.70;3.73;;;12.70;98.30;;;;;;5202095;22;20509;-83
2021/10/04 01:25:36;;;;;;;4.80;4.27;;;12.70;98.30;;;;;;5202128;22;21019;-83
2021/10/04 01:27:40;;;;;;;5.37;3.90;;;12.70;98.30;;;;;;5201840;22;20473;-83
2021/10/04 01:29:43;;;;;;;6.13;3.90;;;12.70;98.30;;;;;;5202840;22;20475;-83
2021/10/04 01:31:49;;;;;;;4.57;4.17;;;12.60;98.30;;;;;;5202459;22;20430;-84
2021/10/04 01:33:53;;;;;;;4.80;3.20;;;12.60;98.30;;;;;;5202609;22;20541;-83
2021/10/04 01:35:56;;;;;;;4.97;3.90;;;12.60;98.30;;;;;;5201366;22;20466;-83
2021/10/04 01:38:01;;;;;;;4.30;3.83;;;12.60;98.30;;;;;;5202528;22;20489;-82
2021/10/04 01:40:06;;;;;;;4.20;3.67;;;12.60;98.30;;;;;;5201899;22;20775;-83
2021/10/04 01:42:09;;;;;;;4.90;3.50;;;12.50;98.30;;;;;;5202007;22;20433;-83
2021/10/04 01:44:12;;;;;;;4.53;3.17;;;12.50;98.30;;;;;;5201795;22;20501;-83
2021/10/04 01:46:15;;;;;;;3.53;3.00;;;12.50;98.30;;;;;;5201760;22;20422;-83
2021/10/04 01:48:18;;;;;;;4.30;3.50;;;12.60;98.30;;;;;;5202456;22;20431;-84
2021/10/04 01:50:21;;;;;;;4.40;3.60;;;12.60;98.30;;;;;;5201492;22;20517;-82
2021/10/04 01:52:25;;;;;;;4.30;3.87;;;12.50;98.30;;;;;;5201633;22;20431;-83
2021/10/04 01:54:31;;;;;;;4.90;3.50;;;12.50;98.30;;;;;;5202800;22;20423;-82
2021/10/04 01:56:34;;;;;;;5.07;4.10;;;12.50;98.30;;;;;;5202479;22;20427;-83
2021/10/04 01:58:37;;;;;;;3.77;3.23;;;12.50;98.30;;;;;;5202171;22;20505;-83
2021/10/04 02:00:40;;;;;;;8.70;3.80;;;12.50;98.30;;;;;;5201801;22;20489;-83
2021/10/04 02:02:45;;;;;;;6.90;3.70;;;12.50;98.30;;;;;;5201559;22;20513;-83
2021/10/04 02:04:48;;;;;;;7.83;3.67;;;12.50;98.30;;;;;;5202180;22;20450;-83
2021/10/04 02:06:51;;;;;;;4.57;3.57;;;12.50;98.30;;;;;;5202919;22;20930;-83
2021/10/04 02:08:54;;;;;;;6.80;3.40;;;12.50;98.30;;;;;;5202187;22;20481;-83
2021/10/04 02:10:58;;;;;;;4.20;3.50;;;12.50;98.30;;;;;;5201502;22;20422;-83
2021/10/04 02:13:05;;;;;;;3.67;3.33;;;12.50;98.30;;;;;;5201353;22;20442;-83
2021/10/04 02:15:09;;;;;;;3.90;3.40;;;12.50;98.30;;;;;;5201996;22;20510;-84
2021/10/04 02:17:12;;;;;;;5.47;4.10;;;12.40;98.30;;;;;;5202013;22;20450;-83
2021/10/04 02:19:15;;;;;;;5.90;3.87;;;12.40;98.30;;;;;;5201275;22;20518;-83
2021/10/04 02:21:18;;;;;;;4.87;3.40;;;12.40;98.30;;;;;;5201015;22;20450;-84
2021/10/04 02:23:22;;;;;;;4.87;3.10;;;12.40;98.30;;;;;;5201332;22;20458;-83
2021/10/04 02:25:25;;;;;;;4.80;3.40;;;12.30;98.30;;;;;;5200840;22;20494;-83
2021/10/04 02:27:29;;;;;;;6.13;3.60;;;12.30;98.30;;;;;;5202721;22;20450;-83
2021/10/04 02:29:32;;;;;;;5.30;3.40;;;12.30;98.30;;;;;;5202695;22;20446;-83
2021/10/04 02:31:35;;;;;;;5.33;3.70;;;12.30;98.30;;;;;;5202264;22;20518;-83
2021/10/04 02:33:38;;;;;;;6.70;3.37;;;12.30;98.30;;;;;;5203584;22;20454;-83
2021/10/04 02:35:42;;;;;;;3.43;3.13;;;12.30;98.30;;;;;;5194395;22;20427;-82
2021/10/04 02:37:46;;;;;;;3.67;3.27;;;12.40;98.30;;;;;;5202599;22;20506;-83
2021/10/04 02:39:49;;;;;;;3.33;3.03;;;12.30;98.30;;;;;;5202677;22;20450;-82
2021/10/04 02:41:52;;;;;;;4.10;3.20;;;12.30;98.30;;;;;;5194621;22;20422;-82
2021/10/04 02:43:57;;;;;;;5.83;3.43;;;12.30;98.30;;;;;;5202797;22;20421;-83
2021/10/04 02:46:00;;;;;;;4.80;3.10;;;12.30;98.30;;;;;;5202560;22;20426;-83
2021/10/04 02:48:05;;;;;;;4.53;3.63;;;12.30;98.30;;;;;;5201965;22;20423;-82
2021/10/04 02:50:11;;;;;;;6.60;3.43;;;12.30;98.30;;;;;;5202448;22;20469;-83
2021/10/04 02:52:16;;;;;;;3.10;2.83;;;12.30;98.30;;;;;;5202882;22;20425;-83
2021/10/04 02:54:20;;;;;;;5.10;3.40;;;12.30;98.30;;;;;;5202931;22;20509;-83
2021/10/04 02:56:23;;;;;;;4.00;3.60;;;12.40;98.30;;;;;;5202350;22;20428;-84
2021/10/04 02:58:26;;;;;;;6.83;3.17;;;12.30;98.30;;;;;;5200514;22;20837;-84
2021/10/04 03:00:31;;;;;;;5.77;4.20;;;12.40;98.30;;;;;;5200563;22;20912;-83
2021/10/04 03:02:34;;;;;;;4.73;3.27;;;12.40;98.30;;;;;;5200922;22;20529;-84
2021/10/04 03:04:38;;;;;;;4.90;3.23;;;12.30;98.30;;;;;;5201349;22;20426;-83
2021/10/04 03:06:41;;;;;;;5.80;3.23;;;12.30;98.30;;;;;;5202916;22;20423;-83
2021/10/04 03:08:44;;;;;;;6.23;4.00;;;12.30;98.30;;;;;;5202872;22;20525;-84
2021/10/04 03:10:47;;;;;;;3.53;3.20;;;12.40;98.30;;;;;;5203006;22;20450;-84
2021/10/04 03:12:50;;;;;;;5.67;3.40;;;12.40;98.30;;;;;;5203890;22;20455;-82
2021/10/04 03:14:53;;;;;;;4.57;3.80;;;12.30;98.30;;;;;;5203716;22;20427;-84
2021/10/04 03:16:58;;;;;;;4.57;3.70;;;12.40;98.30;;;;;;5204591;22;20505;-83
2021/10/04 03:19:01;;;;;;;5.20;3.70;;;12.40;98.30;;;;;;5203149;22;20465;-84
2021/10/04 03:21:04;;;;;;;4.67;3.73;;;12.30;98.30;;;;;;5203657;22;20480;-83
2021/10/04 03:23:07;;;;;;;5.30;3.93;;;12.30;98.30;;;;;;5204236;22;20502;-83
2021/10/04 03:25:11;;;;;;;4.07;3.67;;;12.30;98.30;;;;;;5204842;22;20946;-83
2021/10/04 03:27:14;;;;;;;16.30;5.30;;;12.30;98.30;;;;;;5204535;22;20423;-83
2021/10/04 03:29:17;;;;;;;7.40;4.47;;;12.40;98.30;;;;;;5205046;22;20541;-83
2021/10/04 03:31:20;;;;;;;5.00;4.10;;;12.30;98.30;;;;;;5205030;22;20458;-82
2021/10/04 03:33:25;;;;;;;5.57;4.10;;;12.30;98.30;;;;;;5205326;22;20469;-83
2021/10/04 03:35:28;;;;;;;4.30;3.90;;;12.30;98.30;;;;;;5204465;22;20422;-83
2021/10/04 03:37:31;;;;;;;7.00;4.10;;;12.30;98.30;;;;;;5204553;22;20747;-83
2021/10/04 03:39:34;;;;;;;5.93;4.57;;;12.30;98.30;;;;;;5202837;22;20435;-85
2021/10/04 03:41:37;;;;;;;6.60;4.40;;;12.30;98.30;;;;;;5203312;22;20513;-83
2021/10/04 03:43:40;;;;;;;12.13;5.33;;;12.40;98.30;;;;;;5205173;22;20423;-83
2021/10/04 03:45:44;;;;;;;6.20;4.80;;;12.30;98.30;;;;;;5205534;22;20418;-83
2021/10/04 03:47:47;;;;;;;9.43;5.03;;;12.30;98.30;;;;;;5196986;22;20427;-83
2021/10/04 03:49:52;;;;;;;6.13;5.43;;;12.30;98.30;;;;;;5203901;22;20697;-83
2021/10/04 03:51:54;;;;;;;7.87;5.43;;;12.30;98.30;;;;;;5203815;22;20433;-83
2021/10/04 03:53:58;;;;;;;8.03;5.57;;;12.30;98.30;;;;;;5204482;22;20430;-83
2021/10/04 03:56:01;;;;;;;7.63;5.30;;;12.30;98.30;;;;;;5203873;22;20412;-83
2021/10/04 03:58:04;;;;;;;9.10;5.17;;;12.30;98.30;;;;;;5203982;22;20433;-83
2021/10/04 04:00:11;;;;;;;7.00;4.30;;;12.30;98.30;;;;;;5204748;22;20439;-83
2021/10/04 04:02:14;;;;;;;6.60;5.17;;;12.40;98.30;;;;;;5203871;22;20415;-83
2021/10/04 04:04:17;;;;;;;9.80;4.80;;;12.40;98.30;;;;;;5204198;22;20422;-83
2021/10/04 04:06:22;;;;;;;6.60;5.60;;;12.40;98.30;;;;;;5203605;22;21112;-83
2021/10/04 04:08:25;;;;;;;7.97;5.20;;;12.40;98.30;;;;;;5204382;22;20994;-83
2021/10/04 04:10:28;;;;;;;6.53;5.30;;;12.40;98.30;;;;;;5204728;22;20490;-84
2021/10/04 04:12:31;;;;;;;8.30;5.33;;;12.40;98.30;;;;;;5204228;22;20505;-83
2021/10/04 04:14:34;;;;;;;7.33;5.27;;;12.40;98.30;;;;;;5204187;22;20431;-82
2021/10/04 04:16:37;;;;;;;8.20;5.50;;;12.40;98.30;;;;;;5203377;22;21124;-83
2021/10/04 04:18:40;;;;;;;6.50;5.20;;;12.40;98.30;;;;;;5203607;22;20419;-83
2021/10/04 04:20:43;;;;;;;9.80;5.63;;;12.40;98.30;;;;;;5203546;22;20419;-83
2021/10/04 04:22:48;;;;;;;6.43;5.10;;;12.40;98.30;;;;;;5202967;22;20453;-83
2021/10/04 04:24:51;;;;;;;8.57;5.20;;;12.40;98.30;;;;;;5202595;22;20492;-83
2021/10/04 04:26:56;;;;;;;9.77;5.70;;;12.30;98.30;;;;;;5202796;22;20423;-83
2021/10/04 04:28:59;;;;;;;6.90;4.83;;;12.30;98.30;;;;;;5201623;22;20449;-83
2021/10/04 04:31:02;;;;;;;11.30;5.40;;;12.30;98.30;;;;;;5202418;22;20429;-85
2021/10/04 04:33:05;;;;;;;6.13;5.20;;;12.30;98.30;;;;;;5205016;22;20427;-83
2021/10/04 04:35:09;;;;;;;9.20;5.57;;;12.30;98.30;;;;;;5203117;22;20419;-84
2021/10/04 04:37:12;;;;;;;9.37;5.30;;;12.40;98.30;;;;;;5205089;22;20453;-83
2021/10/04 04:39:17;;;;;;;7.93;5.10;;;12.40;98.30;;;;;;5202743;22;20471;-82
2021/10/04 04:41:20;;;;;;;5.93;4.97;;;12.40;98.30;;;;;;5202306;22;20430;-82
2021/10/04 04:43:22;;;;;;;14.23;5.80;;;12.40;98.30;;;;;;5203480;22;20437;-81
2021/10/04 04:45:26;;;;;;;10.03;5.57;;;12.40;98.30;;;;;;5194563;22;20435;-81
2021/10/04 04:47:29;;;;;;;8.43;5.57;;;12.40;98.30;;;;;;5202432;22;21020;-81
2021/10/04 04:49:31;;;;;;;7.90;5.30;;;12.40;98.30;;;;;;5193359;22;20447;-81
2021/10/04 04:51:34;;;;;;;7.13;5.10;;;12.40;98.30;;;;;;5192568;22;20964;-81
2021/10/04 04:53:37;;;;;;;5.70;4.90;;;12.40;98.30;;;;;;5191841;22;20426;-81
2021/10/04 04:55:42;;;;;;;8.33;5.10;;;12.40;98.30;;;;;;5201474;22;20990;-82
2021/10/04 04:57:45;;;;;;;9.37;6.10;;;12.40;98.30;;;;;;5192969;22;20422;-82
2021/10/04 04:59:48;;;;;;;7.40;5.23;;;12.40;98.30;;;;;;5192060;22;20438;-81
2021/10/04 05:01:51;;;;;;;5.33;4.50;;;12.50;98.30;;;;;;5201512;22;20826;-81
2021/10/04 05:03:54;;;;;;;10.87;5.73;;;12.40;98.30;;;;;;5192628;22;20423;-82
2021/10/04 05:05:57;;;;;;;9.13;5.13;;;12.50;98.30;;;;;;5193040;22;20434;-81
2021/10/04 05:08:00;;;;;;;6.07;5.03;;;12.50;98.30;;;;;;5194307;22;20427;-81
2021/10/04 05:10:04;;;;;;;7.50;4.83;;;12.50;98.30;;;;;;5201860;22;20443;-81
2021/10/04 05:12:08;;;;;;;8.00;5.20;;;12.50;98.30;;;;;;5194369;22;20514;-81
2021/10/04 05:14:14;;;;;;;6.40;5.07;;;12.50;98.30;;;;;;5199657;22;20501;-81
2021/10/04 05:16:17;;;;;;;6.03;4.70;;;12.40;98.30;;;;;;5203634;22;20931;-82
2021/10/04 05:18:20;;;;;;;9.97;5.00;;;12.50;98.30;;;;;;5203685;22;20422;-81
2021/10/04 05:20:24;;;;;;;10.73;4.80;;;12.50;98.30;;;;;;5203777;22;20438;-82
2021/10/04 05:22:27;;;;;;;8.73;4.50;;;12.50;98.30;;;;;;5203533;22;20434;-81
2021/10/04 05:24:30;;;;;;;10.33;4.90;;;12.50;98.30;;;;;;5195427;22;20825;-82
2021/10/04 05:26:33;;;;;;;6.40;4.30;;;12.50;98.30;;;;;;5194652;22;20430;-81
2021/10/04 05:28:37;;;;;;;6.80;3.67;;;12.50;98.30;;;;;;5202988;22;20427;-81
2021/10/04 05:30:40;;;;;;;8.80;4.73;;;12.50;98.30;;;;;;5203523;22;20440;-82
2021/10/04 05:32:43;;;;;;;9.13;4.43;;;12.60;98.30;;;;;;5194362;22;20427;-82
2021/10/04 05:34:46;;;;;;;10.43;4.97;;;12.60;98.30;;;;;;5203327;22;20426;-81
2021/10/04 05:36:49;;;;;;;8.20;5.30;;;12.60;98.30;;;;;;5194881;22;20946;-82
2021/10/04 05:38:52;;;;;;;7.77;4.57;;;12.60;98.30;;;;;;5202676;22;20453;-81
2021/10/04 05:40:55;;;;;;;5.93;4.47;;;12.60;98.30;;;;;;5202761;22;20505;-81
2021/10/04 05:42:58;;;;;;;8.53;4.50;;;12.70;98.30;;;;;;5194314;22;20489;-82
2021/10/04 05:45:04;;;;;;;7.00;4.53;;;12.70;98.30;;;;;;5194750;22;20427;-81
2021/10/04 05:47:07;;;;;;;8.50;4.80;;;12.70;98.30;;;;;;5204371;22;20881;-82
2021/10/04 05:49:10;;;;;;;6.53;4.30;;;12.70;98.30;;;;;;5194958;22;20454;-81
2021/10/04 05:51:13;;;;;;;7.73;4.73;;;12.70;98.30;;;;;;5194544;22;20442;-82
2021/10/04 05:53:16;;;;;;;6.70;4.23;;;12.70;98.30;;;;;;5203157;22;20429;-81
2021/10/04 05:55:20;;;;;;;6.60;4.20;;;12.70;98.30;;;;;;5202687;22;20419;-82
2021/10/04 05:57:23;;;;;;;6.10;4.10;;;12.70;98.30;;;;;;5203492;22;20429;-81
2021/10/04 05:59:25;;;;;;;8.07;4.13;;;12.70;98.30;;;;;;5195118;22;20443;-81
2021/10/04 06:01:30;;;;;;;8.00;4.70;;;12.70;98.30;;;;;;5208866;22;20421;-82
2021/10/04 06:03:34;;;;;;;4.53;3.97;;;12.70;98.30;;;;;;5203539;22;20521;-82
2021/10/04 06:05:37;;;;;;;6.40;4.17;;;12.70;98.30;;;;;;5204427;22;20522;-81
2021/10/04 06:07:40;;;;;;;6.13;3.83;;;12.70;98.30;;;;;;5195744;22;20430;-81
2021/10/04 06:09:59;;;;;;;7.20;4.03;;;12.70;98.30;;;;;;5204212;22;20445;-84
2021/10/04 06:12:02;;;;;;;4.00;3.60;;;12.70;98.30;;;;;;5195289;22;20441;-82
2021/10/04 06:14:05;;;;;;;5.53;3.67;;;12.70;98.30;;;;;;5203896;22;20419;-81
2021/10/04 06:19:02;;;;;;;8.10;3.60;;;12.70;98.30;;;;;;5195580;22;20804;-82
2021/10/04 10:05:38;;;;;;;6.40;2.73;;;14.20;98.30;;;;;;5196815;22;20445;31
2021/10/04 10:07:45;;;;;;;6.17;2.90;;;14.20;98.30;;;;;;5199221;22;20425;-83
2021/10/04 10:10:07;;;;;;;5.37;2.73;;;14.30;98.30;;;;;;5199678;22;20423;-83
2021/10/04 10:12:10;;;;;;;3.10;2.60;;;14.40;98.30;;;;;;5198981;22;20466;-83
2021/10/04 10:14:14;;;;;;;4.20;2.50;;;14.50;98.30;;;;;;5199361;22;20419;-83
2021/10/04 10:16:21;;;;;;;5.00;2.83;;;14.50;98.30;;;;;;5198987;22;20471;-82
2021/10/04 10:18:27;;;;;;;4.20;2.80;;;14.50;98.30;;;;;;5199681;22;20831;-83
2021/10/04 12:21:27;;;;;;;7.93;2.40;;;17.40;98.30;;;;;;5218264;22;20850;-82
2021/10/04 12:23:30;;;;;;;6.33;2.53;;;18.00;98.30;;;;;;5251515;22;20424;-81
2021/10/04 12:25:47;;;;;;;3.60;2.33;;;18.60;98.30;;;;;;5251225;22;20420;-84
2021/10/04 12:28:01;;;;;;;6.40;2.73;;;19.00;98.30;;;;;;5251595;22;20881;-84
2021/10/04 12:30:06;;;;;;;5.90;2.83;;;19.00;98.30;;;;;;5251543;22;20501;-84
2021/10/04 12:32:46;;;;;;;5.50;2.37;;;19.00;98.30;;;;;;5217142;22;20482;-84
2021/10/04 12:35:10;;;;;;;5.10;2.53;;;18.90;98.30;;;;;;5100169;23;20430;-83
2021/10/04 12:37:23;;;;;;;7.17;3.03;;;18.50;98.30;;;;;;5189284;22;20422;-83
2021/10/04 12:39:39;;;;;;;4.70;2.50;;;18.30;98.30;;;;;;5228746;22;20448;-84
2021/10/04 12:41:44;;;;;;;5.77;2.97;;;18.10;98.30;;;;;;5227562;22;20487;-84
2021/10/04 12:43:48;;;;;;;5.93;2.90;;;17.90;98.30;;;;;;5228314;22;20424;-83
2021/10/04 12:45:56;;;;;;;5.73;2.87;;;17.70;98.30;;;;;;5227941;22;20418;-83
2021/10/04 12:48:02;;;;;;;4.37;2.50;;;17.40;98.30;;;;;;5228173;22;20414;-83
2021/10/04 12:50:06;;;;;;;3.90;2.30;;;17.40;98.30;;;;;;5227893;22;20424;-83
2021/10/04 12:52:23;;;;;;;7.57;2.63;;;17.30;98.30;;;;;;5228276;22;20467;-84
2021/10/04 12:54:28;;;;;;;4.30;2.33;;;17.60;98.30;;;;;;5228180;22;20781;-83
2021/10/04 12:56:32;;;;;;;7.00;2.40;;;18.30;98.30;;;;;;5227823;22;20425;-84
2021/10/04 12:58:37;;;;;;;3.67;2.30;;;18.90;98.30;;;;;;5227965;22;20426;-84
2021/10/04 13:00:41;;;;;;;5.53;2.30;;;20.10;98.30;;;;;;5227832;22;20438;-83
2021/10/04 13:02:57;;;;;;;4.73;2.67;;;21.10;95.70;;;;;;5227220;22;20826;-83
2021/10/04 13:05:00;;;;;;;4.10;2.40;;;21.50;94.60;;;;;;5227606;22;20421;-85
2021/10/04 13:07:05;;;;;;;3.23;2.10;;;22.10;92.60;;;;;;5227617;22;20500;-83
2021/10/04 13:09:10;;;;;;;4.60;2.70;;;22.50;91.50;;;;;;5227642;22;20419;-85
2021/10/04 13:11:16;;;;;;;6.30;3.00;;;22.30;90.40;;;;;;5218561;22;20446;-90
2021/10/04 13:13:19;;;;;;;4.93;2.60;;;22.30;90.50;;;;;;5227724;22;20414;-84
2021/10/04 13:15:22;;;;;;;5.10;2.50;;;22.20;91.10;;;;;;5227876;22;20418;-83
2021/10/04 13:17:25;;;;;;;6.60;2.40;;;22.50;91.40;;;;;;5227260;22;20441;-83
2021/10/04 13:19:30;;;;;;;3.40;2.50;;;22.80;89.90;;;;;;5227237;22;20428;-84
2021/10/04 13:21:34;;;;;;;4.10;2.30;;;23.10;88.10;;;;;;5226726;22;20454;-83
2021/10/04 13:23:37;;;;;;;3.80;2.50;;;23.10;88.60;;;;;;5227170;22;20421;-83
2021/10/04 13:25:41;;;;;;;4.70;2.30;;;22.80;89.90;;;;;;5227331;22;20426;-83
2021/10/04 13:27:44;;;;;;;4.20;2.60;;;22.10;90.10;;;;;;5227413;22;20421;-84
2021/10/04 13:29:48;;;;;;;4.60;3.40;;;21.10;92.50;;;;;;5227944;22;20746;-83
2021/10/04 13:31:51;;;;;;;5.53;2.80;;;20.20;95.30;;;;;;5227405;22;20781;-83
2021/10/04 13:33:55;;;;;;;3.77;2.17;;;20.00;96.20;;;;;;5228416;22;20425;-83
2021/10/04 13:35:58;;;;;;;4.77;2.37;;;20.70;94.90;;;;;;5227414;22;20414;-83
2021/10/04 13:38:01;;;;;;;3.23;2.37;;;21.00;93.70;;;;;;5226893;22;20421;-83
2021/10/04 13:40:05;;;;;;;3.50;2.40;;;21.30;92.80;;;;;;5227730;22;20444;-83
2021/10/04 13:42:09;;;;;;;4.37;3.20;;;21.70;91.50;;;;;;5226600;22;20442;-83
2021/10/04 13:44:15;;;;;;;7.13;2.40;;;21.90;91.00;;;;;;5227168;22;20475;-83
2021/10/04 13:46:19;;;;;;;5.20;2.30;;;22.30;89.80;;;;;;5227120;22;20426;-82
2021/10/04 13:48:23;;;;;;;4.77;2.83;;;22.40;88.40;;;;;;5226673;22;20472;-83
2021/10/04 13:50:26;;;;;;;5.13;2.17;;;22.60;89.40;;;;;;5226948;22;20445;-83
2021/10/04 13:52:31;;;;;;;3.87;2.50;;;22.60;88.50;;;;;;5225879;22;20438;-83
2021/10/04 13:54:35;;;;;;;4.90;2.60;;;22.60;88.70;;;;;;5227116;22;20445;-85
2021/10/04 13:56:40;;;;;;;4.97;2.57;;;22.90;88.10;;;;;;5226788;22;20445;-84
2021/10/04 13:58:45;;;;;;;6.00;3.20;;;22.70;88.50;;;;;;5219231;22;20406;-83
2021/10/04 14:00:49;;;;;;;5.90;2.60;;;22.80;87.10;;;;;;5227367;22;20935;-84
2021/10/04 14:02:54;;;;;;;4.03;2.43;;;22.00;88.70;;;;;;5227750;22;20418;-83
2021/10/04 14:04:57;;;;;;;4.13;2.40;;;21.70;90.00;;;;;;5227693;22;20463;-84
2021/10/04 14:07:00;;;;;;;9.00;3.27;;;22.10;89.50;;;;;;5227811;22;20422;-83
2021/10/04 14:09:03;;;;;;;4.07;2.40;;;21.80;89.30;;;;;;5227327;22;20483;-83
2021/10/04 14:11:06;;;;;;;5.23;2.27;;;21.40;90.30;;;;;;5216422;22;20446;-83
2021/10/04 14:13:09;;;;;;;4.53;2.50;;;21.90;90.10;;;;;;5216431;22;20446;-83
2021/10/04 14:15:15;;;;;;;7.13;2.53;;;22.30;88.10;;;;;;5216545;22;20421;-83
2021/10/04 14:17:18;;;;;;;7.93;2.27;;;22.20;88.10;;;;;;5216630;22;20426;-83
2021/10/04 14:19:21;;;;;;;7.20;2.90;;;22.40;88.20;;;;;;5216279;22;20433;-84
2021/10/04 14:21:27;;;;;;;4.77;2.47;;;22.60;88.20;;;;;;5215738;22;20973;-83
2021/10/04 14:23:33;;;;;;;7.60;2.90;;;22.80;87.20;;;;;;5224394;22;20421;-83
2021/10/04 14:25:36;;;;;;;7.50;2.50;;;23.30;86.70;;;;;;5216566;22;21099;-83
2021/10/04 14:27:39;;;;;;;4.33;2.40;;;23.30;86.00;;;;;;5225055;22;20414;-84
2021/10/04 14:29:43;;;;;;;3.40;2.20;;;23.00;87.30;;;;;;5216407;22;20436;-84
2021/10/04 14:31:47;;;;;;;4.53;2.33;;;22.60;86.40;;;;;;5217086;22;20442;-83
2021/10/04 14:33:50;;;;;;;3.87;2.27;;;21.90;86.90;;;;;;5224974;22;20941;-83
2021/10/04 14:35:54;;;;;;;3.33;2.10;;;21.70;87.90;;;;;;5216208;22;20553;-83
2021/10/04 14:37:57;;;;;;;4.73;2.00;;;22.20;87.80;;;;;;5216372;22;20436;-84
2021/10/04 14:40:00;;;;;;;5.33;2.47;;;22.30;85.90;;;;;;5216359;22;20432;-83
2021/10/04 14:42:04;;;;;;;4.30;2.10;;;22.10;86.80;;;;;;5215928;22;20779;-83
2021/10/04 14:44:08;;;;;;;4.53;2.30;;;22.30;86.00;;;;;;5216396;22;20915;-83
2021/10/04 14:46:19;;;;;;;5.80;2.77;;;22.20;85.90;;;;;;5216330;22;20453;-83
2021/10/04 14:48:23;;;;;;;3.23;2.30;;;21.70;88.10;;;;;;5225165;22;20425;-83
2021/10/04 14:50:26;;;;;;;7.20;2.87;;;22.30;87.80;;;;;;5224577;22;20424;-83
2021/10/04 14:52:29;;;;;;;4.53;2.40;;;22.80;86.40;;;;;;5224452;22;20452;-83
2021/10/04 14:54:32;;;;;;;3.10;2.57;;;23.40;85.60;;;;;;5224526;22;20425;-84
2021/10/04 14:56:36;;;;;;;2.83;2.20;;;24.00;84.20;;;;;;5224765;22;20421;-84
2021/10/04 14:58:41;;;;;;;4.30;2.20;;;24.50;82.40;;;;;;5224419;22;20469;-83
2021/10/04 15:00:44;;;;;;;3.50;1.90;;;24.10;81.20;;;;;;5225234;22;20521;-83
2021/10/04 15:02:47;;;;;;;3.00;2.37;;;23.50;82.30;;;;;;5225816;22;20844;-83
2021/10/04 15:04:51;;;;;;;3.03;1.93;;;23.00;83.50;;;;;;5226434;22;20501;-83
2021/10/04 15:06:54;;;;;;;3.40;2.10;;;23.00;84.40;;;;;;5226601;22;20428;-83
2021/10/04 15:08:57;;;;;;;3.00;1.87;;;22.90;83.70;;;;;;5226858;22;20457;-83
2021/10/04 15:11:01;;;;;;;3.73;2.20;;;23.00;83.70;;;;;;5229268;22;20492;-83
2021/10/04 15:13:04;;;;;;;3.80;2.30;;;23.00;82.80;;;;;;5230162;22;20434;-83
2021/10/04 15:15:08;;;;;;;4.33;2.30;;;22.60;83.40;;;;;;5229171;22;20433;-83
2021/10/04 15:17:11;;;;;;;3.37;2.20;;;22.50;84.50;;;;;;5229149;22;20428;-83
2021/10/04 15:19:14;;;;;;;3.17;2.03;;;22.70;84.20;;;;;;5230468;22;20414;-83
2021/10/04 15:21:19;;;;;;;2.40;2.03;;;22.70;83.30;;;;;;5228768;22;20485;-84
2021/10/04 15:23:22;;;;;;;3.80;2.03;;;22.40;83.70;;;;;;5229686;22;20426;-85
2021/10/04 15:25:25;;;;;;;4.23;2.57;;;22.10;84.40;;;;;;5229673;22;20427;-83
2021/10/04 15:27:28;;;;;;;4.63;2.40;;;21.90;85.30;;;;;;5230651;22;20418;-84
2021/10/04 15:29:31;;;;;;;3.30;2.10;;;21.80;85.60;;;;;;5222647;22;20455;-82
2021/10/04 15:31:34;;;;;;;4.60;2.13;;;21.50;85.40;;;;;;5230263;22;20441;-84
2021/10/04 15:33:38;;;;;;;2.23;2.03;;;21.50;85.60;;;;;;5229906;22;20983;-82
2021/10/04 15:35:41;;;;;;;2.57;1.90;;;21.50;85.20;;;;;;5229747;22;20428;-82
2021/10/04 15:37:45;;;;;;;2.30;1.80;;;21.50;85.90;;;;;;5229844;22;20413;-82
2021/10/04 15:39:49;;;;;;;3.57;1.97;;;21.40;85.70;;;;;;5229895;22;20456;-83
2021/10/04 15:44:59;;;;;;;4.80;2.33;;;21.30;85.60;;;;;;5098913;22;20467;-84
2021/10/04 15:47:02;;;;;;;2.20;2.00;;;21.10;86.50;;;;;;5229412;22;20427;-83
2021/10/04 15:49:05;;;;;;;3.77;2.30;;;21.10;86.40;;;;;;5229139;22;21198;-82
2021/10/04 15:51:08;;;;;;;4.07;2.13;;;20.80;87.10;;;;;;5229363;22;20434;-83
2021/10/04 15:53:32;;;;;;;3.00;2.00;;;20.70;87.80;;;;;;5221774;22;20448;-83
2021/10/04 15:55:35;;;;;;;7.10;2.63;;;20.10;88.80;;;;;;5231027;22;20409;-82
2021/10/04 15:57:41;;;;;;;4.67;2.27;;;19.80;90.10;;;;;;5229783;22;20497;-82
2021/10/04 16:00:00;;;;;;;7.23;3.27;;;19.50;90.80;;;;;;5229849;22;20752;-83
2021/10/04 16:02:03;;;;;;;2.60;2.30;;;19.20;91.90;;;;;;5229388;22;20448;-83
2021/10/04 16:04:07;;;;;;;3.13;2.00;;;19.20;92.50;;;;;;5220174;22;20823;-83
2021/10/04 16:06:10;;;;;;;2.93;2.17;;;19.00;93.20;;;;;;5228354;22;20508;-83
2021/10/04 16:08:16;;;;;;;3.20;1.80;;;18.90;93.50;;;;;;5226403;22;20449;-83
2021/10/04 16:10:19;;;;;;;2.73;2.10;;;18.50;94.80;;;;;;5226198;22;20452;-83
2021/10/04 16:12:22;;;;;;;3.07;2.50;;;18.30;95.60;;;;;;5226083;22;20425;-83
2021/10/04 16:14:25;;;;;;;3.10;2.00;;;18.20;96.00;;;;;;5225800;22;20544;-83
2021/10/04 16:16:29;;;;;;;5.60;2.67;;;18.00;96.30;;;;;;5226162;22;20499;-83
2021/10/04 16:18:33;;;;;;;3.40;2.13;;;18.00;96.90;;;;;;5217943;22;20771;-82
2021/10/04 16:20:36;;;;;;;4.80;2.30;;;17.80;97.50;;;;;;5226779;22;20445;-83
2021/10/04 16:22:40;;;;;;;5.40;2.40;;;17.60;98.30;;;;;;5226325;22;20480;-83
2021/10/04 16:24:45;;;;;;;2.40;2.20;;;17.50;98.30;;;;;;5226435;22;20426;-82
2021/10/04 16:26:50;;;;;;;2.80;2.20;;;17.40;98.30;;;;;;5228201;22;20426;-83
2021/10/04 16:28:53;;;;;;;3.43;2.13;;;17.40;98.30;;;;;;5229380;22;20448;-82
2021/10/04 16:30:58;;;;;;;3.77;2.30;;;17.20;98.30;;;;;;5219948;22;20446;-83
2021/10/04 16:33:01;;;;;;;3.90;2.03;;;17.10;98.30;;;;;;5230842;22;20449;-83
2021/10/04 16:35:05;;;;;;;3.60;2.17;;;17.00;98.30;;;;;;5220196;22;20429;-83
2021/10/04 16:37:08;;;;;;;2.63;1.90;;;17.00;98.30;;;;;;5227747;22;20425;-83